Time;durP1;ratioP1;P1;durP2;ratioP2;P2;SDS_P1;SDS_P2;PMS_P1;PMS_P2;Temp;Humidity;BMP_temperature;BMP_pressure;BME280_temperature;BME280_humidity;BME280_pressure;Samples;Min_cycle;Max_cycle;Signal;HPM_P1;HPM_P2
2023/11/08 00:01:53;;;;;;;8.90;2.90;;;;;;;15.22;61.34;100818.02;106257;1255;68486;-85
2023/11/08 00:04:39;;;;;;;6.50;3.30;;;;;;;15.09;61.75;100821.92;106031;1260;72678;-85
2023/11/08 00:07:18;;;;;;;7.10;3.80;;;;;;;14.96;61.94;100821.86;106485;1257;64245;-86
2023/11/08 00:10:00;;;;;;;7.70;3.70;;;;;;;14.83;62.17;100822.68;105941;1258;61254;-82
2023/11/08 00:12:28;;;;;;;6.00;2.80;;;;;;;14.71;62.77;100825.95;105939;1255;73342;-83
2023/11/08 00:15:08;;;;;;;7.70;3.10;;;;;;;14.60;63.06;100823.07;106049;1256;68404;-86
2023/11/08 00:17:54;;;;;;;10.10;3.60;;;;;;;14.47;64.11;100825.16;105928;1255;72679;-85
2023/11/08 00:20:34;;;;;;;7.10;3.30;;;;;;;14.37;63.86;100823.33;106634;1254;61706;-86
2023/11/08 00:23:02;;;;;;;9.50;3.90;;;;;;;14.15;64.43;100818.21;106136;1254;61315;-86
2023/11/08 00:25:42;;;;;;;8.90;3.50;;;;;;;14.02;65.18;100811.63;106059;1254;74718;-86
2023/11/08 00:28:22;;;;;;;6.40;3.10;;;;;;;13.86;65.91;100804.50;106152;1254;68413;-82
2023/11/08 00:31:02;;;;;;;6.20;2.90;;;;;;;13.65;67.12;100801.44;106591;1256;71452;-82
2023/11/08 00:33:30;;;;;;;6.10;3.00;;;;;;;13.46;68.19;100811.69;105968;1256;61248;-82
2023/11/08 00:36:10;;;;;;;8.80;3.70;;;;;;;13.44;68.80;100816.87;106103;1255;61157;-82
2023/11/08 00:38:50;;;;;;;9.20;3.00;;;;;;;13.36;69.27;100814.48;106203;1254;74629;-85
2023/11/08 00:41:27;;;;;;;8.70;3.10;;;;;;;13.28;69.39;100809.60;106759;1258;67135;-82
2023/11/08 00:43:59;;;;;;;7.80;3.20;;;;;;;13.22;69.23;100818.02;106079;1260;71371;-83
2023/11/08 00:46:39;;;;;;;9.30;3.90;;;;;;;13.12;69.89;100824.05;106229;1257;61256;-85
2023/11/08 00:49:19;;;;;;;10.50;4.30;;;;;;;12.94;71.44;100823.48;106766;1255;61210;-85
2023/11/08 00:52:00;;;;;;;12.50;4.90;;;;;;;12.88;72.23;100823.68;106067;1254;73307;-85
2023/11/08 00:54:39;;;;;;;11.30;4.40;;;;;;;12.86;72.92;100809.20;106168;1254;67190;-83
2023/11/08 00:57:20;;;;;;;10.80;4.10;;;;;;;12.56;74.93;100794.73;106034;1260;71718;-83
2023/11/08 01:00:00;;;;;;;9.60;3.80;;;;;;;12.43;75.94;100789.06;106149;1254;61283;-85
2023/11/08 01:02:40;;;;;;;6.20;3.00;;;;;;;12.39;76.34;100784.59;106717;1259;61238;-84
2023/11/08 01:05:23;;;;;;;9.60;3.50;;;;;;;12.29;77.43;100787.98;105876;1260;74714;-82
2023/11/08 01:08:03;;;;;;;8.10;3.30;;;;;;;12.28;78.24;100786.79;106200;1254;68693;-82
2023/11/08 01:10:46;;;;;;;7.10;3.40;;;;;;;12.32;78.14;100779.64;106494;1256;71772;-83
2023/11/08 01:13:26;;;;;;;9.00;3.70;;;;;;;12.37;77.64;100773.73;106060;1256;61655;-82
2023/11/08 01:16:06;;;;;;;6.10;2.90;;;;;;;12.33;77.60;100765.38;106139;1254;61157;-85
2023/11/08 01:18:46;;;;;;;11.80;3.30;;;;;;;12.26;77.83;100766.23;106002;1254;74641;-82
2023/11/08 01:21:27;;;;;;;6.80;3.80;;;;;;;12.19;78.42;100773.95;106816;1254;68424;-85
2023/11/08 01:24:12;;;;;;;7.50;3.20;;;;;;;12.00;79.18;100773.34;106105;1259;72812;-84
2023/11/08 01:26:52;;;;;;;9.70;4.20;;;;;;;11.81;80.33;100768.40;106229;1257;61236;-85
2023/11/08 01:29:33;;;;;;;11.20;4.00;;;;;;;11.79;81.09;100764.30;106019;1255;61398;-82
2023/11/08 01:32:13;;;;;;;10.80;4.20;;;;;;;11.62;82.50;100764.63;106528;1260;74626;-84
2023/11/08 01:34:53;;;;;;;10.20;4.70;;;;;;;11.56;83.12;100758.58;105943;1260;67130;-85
2023/11/08 01:37:32;;;;;;;11.00;4.40;;;;;;;11.60;83.02;100756.44;106104;1256;72697;-82
2023/11/08 01:40:13;;;;;;;9.40;3.90;;;;;;;11.60;82.16;100758.02;105997;1256;61319;-83
2023/11/08 01:42:53;;;;;;;8.50;3.80;;;;;;;11.54;82.44;100762.02;107007;1255;61189;-82
2023/11/08 01:45:33;;;;;;;6.00;2.80;;;;;;;11.43;83.34;100760.57;106208;1258;74662;-82
2023/11/08 01:48:14;;;;;;;8.30;3.20;;;;;;;11.42;83.31;100757.84;105886;1255;68514;-82
2023/11/08 01:50:54;;;;;;;6.20;3.00;;;;;;;11.33;83.68;100753.21;105961;1255;72652;-82
2023/11/08 01:53:35;;;;;;;9.70;3.30;;;;;;;11.27;84.32;100752.73;107046;1255;61239;-83
2023/11/08 01:56:16;;;;;;;6.50;3.10;;;;;;;11.34;83.89;100757.70;106263;1254;61337;-82
2023/11/08 01:58:57;;;;;;;8.30;3.30;;;;;;;11.25;84.31;100760.51;105909;1254;74687;-83
2023/11/08 02:01:37;;;;;;;7.60;2.80;;;;;;;11.36;83.57;100760.55;105929;1254;67622;-83
2023/11/08 02:04:17;;;;;;;4.60;2.20;;;;;;;11.37;82.39;100759.02;106548;1257;71387;-83
2023/11/08 02:06:58;;;;;;;5.10;2.70;;;;;;;11.35;82.34;100758.57;106163;1254;61319;-83
2023/11/08 02:09:38;;;;;;;5.20;2.50;;;;;;;11.35;82.24;100761.52;106143;1254;61359;-83
2023/11/08 02:12:20;;;;;;;4.40;2.70;;;;;;;11.29;83.00;100766.69;106162;1259;74734;-83
2023/11/08 02:15:15;;;;;;;9.40;2.70;;;;;;;11.28;83.53;100766.63;106772;1255;68733;-82
2023/11/08 02:17:55;;;;;;;9.70;2.60;;;;;;;11.39;83.43;100766.00;106063;1254;71448;-85
2023/11/08 02:20:35;;;;;;;5.80;3.00;;;;;;;11.40;84.39;100760.91;106037;1256;61363;-83
2023/11/08 02:23:15;;;;;;;5.30;3.20;;;;;;;11.49;84.91;100761.55;105936;1260;61612;-86
2023/11/08 02:25:54;;;;;;;6.80;3.10;;;;;;;11.54;85.13;100755.14;106550;1263;74654;-83
2023/11/08 02:28:34;;;;;;;11.60;4.30;;;;;;;11.59;85.18;100757.04;106054;1255;67237;-83
2023/11/08 02:31:15;;;;;;;8.70;3.70;;;;;;;11.65;86.03;100757.89;106141;1256;71795;-86
2023/11/08 02:33:55;;;;;;;12.30;4.80;;;;;;;11.83;85.82;100755.36;106459;1255;61285;-83
2023/11/08 02:36:35;;;;;;;13.10;4.40;;;;;;;11.90;86.37;100757.10;105981;1255;62128;-83
2023/11/08 02:39:15;;;;;;;6.90;3.10;;;;;;;12.04;86.52;100762.70;106046;1258;75029;-83
2023/11/08 02:41:55;;;;;;;7.20;3.10;;;;;;;12.15;86.82;100771.23;106022;1255;68420;-86
2023/11/08 02:44:36;;;;;;;8.30;3.20;;;;;;;12.19;87.09;100766.89;106561;1256;73001;-83
2023/11/08 02:47:16;;;;;;;8.00;3.40;;;;;;;12.34;87.03;100760.55;106189;1256;61369;-82
2023/11/08 02:49:58;;;;;;;7.50;3.50;;;;;;;12.50;87.16;100756.61;105978;1255;61098;-82
2023/11/08 02:52:38;;;;;;;8.20;4.20;;;;;;;12.72;86.80;100743.34;106089;1256;73969;-83
2023/11/08 02:55:18;;;;;;;10.10;4.00;;;;;;;13.00;85.78;100742.28;106665;1256;68387;-82
2023/11/08 02:57:58;;;;;;;10.40;3.80;;;;;;;13.21;85.70;100749.27;106046;1256;72666;-83
2023/11/08 03:00:38;;;;;;;11.70;3.90;;;;;;;13.43;85.25;100752.53;106030;1256;61684;-82
2023/11/08 03:03:17;;;;;;;9.00;4.00;;;;;;;13.61;84.70;100749.64;107041;1257;60363;-85
2023/11/08 03:05:59;;;;;;;12.90;4.50;;;;;;;13.78;84.19;100748.12;106163;1258;74893;-82
2023/11/08 03:08:39;;;;;;;9.70;4.20;;;;;;;13.83;84.27;100753.48;106157;1256;68418;-82
2023/11/08 03:11:19;;;;;;;10.60;3.70;;;;;;;13.93;84.14;100746.66;106272;1260;72774;-84
2023/11/08 03:14:02;;;;;;;9.40;3.90;;;;;;;13.98;84.46;100744.56;106539;1255;61968;-86
2023/11/08 03:16:42;;;;;;;10.10;3.90;;;;;;;14.02;84.49;100748.33;106074;1255;61264;-86
2023/11/08 03:19:23;;;;;;;9.40;4.40;;;;;;;14.03;84.52;100735.48;106053;1260;73391;-86
2023/11/08 03:22:03;;;;;;;6.90;4.00;;;;;;;13.94;85.37;100723.36;106064;1261;67162;-82
2023/11/08 03:24:43;;;;;;;6.60;3.50;;;;;;;14.12;84.27;100718.39;106016;1255;72421;-85
2023/11/08 03:27:23;;;;;;;7.70;3.50;;;;;;;14.13;83.92;100722.05;106244;1260;61216;-85
2023/11/08 03:30:06;;;;;;;6.50;3.60;;;;;;;14.14;83.80;100727.85;106165;1256;61144;-83
2023/11/08 03:32:46;;;;;;;10.80;3.70;;;;;;;14.06;84.56;100725.50;105895;1257;73473;-85
2023/11/08 03:35:25;;;;;;;9.80;3.70;;;;;;;14.06;84.38;100717.27;106745;1258;68536;-85
2023/11/08 03:38:05;;;;;;;10.00;4.00;;;;;;;13.89;85.52;100703.05;105945;1259;71055;-83
2023/11/08 03:40:46;;;;;;;6.80;3.00;;;;;;;13.96;85.67;100702.02;106032;1260;61302;-85
2023/11/08 03:43:26;;;;;;;7.50;3.30;;;;;;;14.09;84.90;100701.16;106070;1257;61332;-86
2023/11/08 03:46:06;;;;;;;7.80;3.70;;;;;;;14.13;84.97;100698.19;106557;1256;75464;-83
2023/11/08 03:48:49;;;;;;;6.60;3.20;;;;;;;14.23;84.42;100690.63;106007;1260;67262;-84
2023/11/08 03:51:29;;;;;;;;;;;;;;;14.27;84.18;100686.02;105946;1260;71556;-82
2023/11/08 03:54:04;;;;;;;8.80;3.50;;;;;;;14.32;83.67;100683.23;106035;1256;61326;-82
2023/11/08 03:56:44;;;;;;;9.00;3.60;;;;;;;14.22;84.09;100675.70;106762;1256;60018;-86
2023/11/08 03:59:24;;;;;;;7.70;2.90;;;;;;;14.10;85.12;100664.61;106112;1255;73421;-81
2023/11/08 04:02:03;;;;;;;5.80;3.20;;;;;;;14.10;85.56;100656.46;105955;1264;67159;-85
2023/11/08 04:04:36;;;;;;;7.30;3.40;;;;;;;14.14;85.57;100659.87;105992;1255;71691;-86
2023/11/08 04:07:18;;;;;;;6.90;3.40;;;;;;;14.17;85.42;100669.78;106786;1259;61336;-82
2023/11/08 04:09:58;;;;;;;5.20;3.10;;;;;;;14.22;85.07;100679.32;106009;1261;61253;-82
2023/11/08 04:12:31;;;;;;;6.50;3.10;;;;;;;14.31;84.66;100685.90;105886;1257;74662;-86
2023/11/08 04:15:06;;;;;;;8.00;3.10;;;;;;;14.36;84.59;100681.69;105899;1261;66593;-84
2023/11/08 04:17:46;;;;;;;8.30;3.60;;;;;;;14.37;84.61;100677.48;107246;1257;71817;-86
2023/11/08 04:20:26;;;;;;;7.70;3.40;;;;;;;14.37;84.71;100677.98;106058;1254;61340;-86
2023/11/08 04:23:00;;;;;;;7.00;3.60;;;;;;;14.49;83.95;100682.81;106140;1258;61235;-83
2023/11/08 04:25:33;;;;;;;9.20;3.70;;;;;;;14.52;83.64;100687.92;106179;1255;74601;-85
2023/11/08 04:28:13;;;;;;;6.90;3.00;;;;;;;14.49;83.76;100682.55;106426;1255;69054;-83
2023/11/08 04:30:54;;;;;;;7.50;4.20;;;;;;;14.49;83.98;100677.91;106024;1256;72657;-82
2023/11/08 04:33:28;;;;;;;9.10;3.70;;;;;;;14.52;83.77;100677.77;106124;1256;61363;-85
2023/11/08 04:36:02;;;;;;;9.60;4.10;;;;;;;14.53;83.86;100679.55;106183;1254;61281;-86
2023/11/08 04:38:44;;;;;;;9.80;4.10;;;;;;;14.67;83.10;100669.94;107610;1254;73427;-83
2023/11/08 04:41:25;;;;;;;9.90;4.10;;;;;;;14.72;82.67;100661.33;106122;1254;67305;-82
2023/11/08 04:43:59;;;;;;;8.70;4.50;;;;;;;14.85;81.91;100653.95;106223;1261;72723;-83
2023/11/08 04:46:35;;;;;;;9.20;4.30;;;;;;;14.87;81.66;100655.05;106026;1256;61826;-85
2023/11/08 04:49:14;;;;;;;7.30;3.80;;;;;;;14.94;81.42;100643.98;106505;1258;61114;-85
2023/11/08 04:51:56;;;;;;;6.10;3.40;;;;;;;15.02;81.06;100632.27;106092;1255;74088;-86
2023/11/08 04:54:30;;;;;;;10.60;4.40;;;;;;;15.15;80.26;100627.41;106169;1255;67508;-85
2023/11/08 04:57:18;;;;;;;7.90;3.70;;;;;;;15.22;79.82;100625.55;106176;1256;72681;-86
2023/11/08 04:59:58;;;;;;;8.50;4.30;;;;;;;15.23;79.78;100621.45;106139;1256;61897;-86
2023/11/08 05:02:38;;;;;;;7.90;3.70;;;;;;;15.29;79.51;100616.42;106304;1258;61136;-86
2023/11/08 05:05:19;;;;;;;9.20;4.20;;;;;;;15.28;79.69;100617.83;106210;1256;74680;-86
2023/11/08 05:07:47;;;;;;;8.30;3.80;;;;;;;15.22;80.59;100618.45;106122;1256;68705;-83
2023/11/08 05:10:27;;;;;;;9.80;3.60;;;;;;;15.30;80.29;100625.23;106431;1254;70158;-83
2023/11/08 05:13:12;;;;;;;5.70;3.00;;;;;;;15.26;80.87;100644.90;105978;1256;61706;-82
2023/11/08 05:15:52;;;;;;;7.30;3.70;;;;;;;15.31;81.05;100642.16;105976;1263;61278;-82
2023/11/08 05:18:21;;;;;;;7.00;3.80;;;;;;;15.24;82.13;100640.89;105943;1258;248406;-84
2023/11/08 05:21:01;;;;;;;8.40;4.50;;;;;;;15.18;83.65;100655.69;107084;1256;68353;-86
2023/11/08 05:23:41;;;;;;;5.80;3.40;;;;;;;15.31;83.85;100650.98;105932;1261;72462;-85
2023/11/08 05:26:21;;;;;;;6.10;3.40;;;;;;;15.39;84.34;100648.77;106098;1255;61686;-82
2023/11/08 05:28:49;;;;;;;8.30;3.80;;;;;;;15.47;84.66;100648.55;106123;1255;61427;-83
2023/11/08 05:31:33;;;;;;;7.70;3.70;;;;;;;15.47;85.96;100645.13;106320;1262;74665;-85
2023/11/08 05:34:15;;;;;;;7.50;3.40;;;;;;;15.67;86.07;100646.38;106044;1256;68319;-84
2023/11/08 05:36:55;;;;;;;9.80;5.20;;;;;;;15.72;87.15;100642.60;105887;1259;72590;-82
2023/11/08 05:39:24;;;;;;;6.50;3.50;;;;;;;15.74;89.36;100644.17;106065;1256;61310;-83
2023/11/08 05:42:05;;;;;;;7.90;3.30;;;;;;;15.64;91.49;100649.08;106902;1260;61396;-83
2023/11/08 05:44:48;;;;;;;6.30;3.20;;;;;;;15.77;92.14;100638.73;105975;1259;74755;-83
2023/11/08 05:47:28;;;;;;;9.20;3.90;;;;;;;16.04;91.31;100640.82;106117;1255;66185;-85
2023/11/08 05:49:56;;;;;;;6.50;3.80;;;;;;;16.14;91.59;100640.46;106073;1256;72673;-83
2023/11/08 05:52:36;;;;;;;9.40;4.70;;;;;;;16.23;91.64;100640.09;106712;1256;61289;-83
2023/11/08 05:55:16;;;;;;;9.50;5.80;;;;;;;16.34;90.80;100642.54;106126;1260;61250;-86
2023/11/08 05:57:56;;;;;;;6.50;4.30;;;;;;;16.31;89.98;100632.31;106093;1260;75608;-83
2023/11/08 06:00:25;;;;;;;9.90;5.00;;;;;;;16.24;90.68;100636.27;106071;1260;67238;-86
2023/11/08 06:03:05;;;;;;;7.50;4.50;;;;;;;16.23;90.79;100628.48;106157;1255;72418;-83
2023/11/08 06:05:45;;;;;;;11.90;5.60;;;;;;;16.18;91.25;100632.73;106907;1261;61225;-86
2023/11/08 06:08:26;;;;;;;11.20;5.40;;;;;;;16.23;91.11;100638.61;106150;1255;61368;-84
2023/11/08 06:10:54;;;;;;;16.40;7.20;;;;;;;16.30;91.21;100663.44;105967;1261;74671;-86
2023/11/08 06:13:35;;;;;;;10.50;4.40;;;;;;;16.31;91.66;100663.13;106197;1260;67290;-84
2023/11/08 06:16:18;;;;;;;7.90;3.70;;;;;;;16.35;91.63;100653.38;106625;1260;72489;-84
2023/11/08 06:18:58;;;;;;;8.20;4.20;;;;;;;16.34;92.31;100645.95;106145;1258;61364;-83
2023/11/08 06:21:26;;;;;;;8.00;3.50;;;;;;;16.44;92.48;100635.08;105929;1260;61226;-86
2023/11/08 06:24:06;;;;;;;7.00;3.30;;;;;;;16.51;92.92;100630.52;105991;1257;75378;-86
2023/11/08 06:26:46;;;;;;;5.90;3.80;;;;;;;16.65;92.94;100620.22;106590;1257;70565;-85
2023/11/08 06:29:26;;;;;;;8.70;4.20;;;;;;;16.69;93.73;100622.05;106014;1257;71776;-86
2023/11/08 06:31:54;;;;;;;6.30;3.20;;;;;;;16.40;97.09;100608.74;106010;1259;61284;-86
2023/11/08 06:34:34;;;;;;;6.00;3.50;;;;;;;16.46;97.82;100595.10;106220;1255;62211;-83
2023/11/08 06:37:16;;;;;;;37.30;13.50;;;;;;;16.54;97.90;100592.92;106516;1255;74696;-83
2023/11/08 06:39:56;;;;;;;7.20;4.00;;;;;;;16.62;97.82;100583.02;105902;1260;67026;-83
2023/11/08 06:42:30;;;;;;;6.80;4.00;;;;;;;16.72;97.65;100578.93;106071;1261;72703;-83
2023/11/08 06:45:04;;;;;;;5.80;3.80;;;;;;;16.80;97.78;100569.70;106186;1254;62046;-88
2023/11/08 06:47:44;;;;;;;8.00;3.80;;;;;;;16.86;97.89;100578.98;106646;1259;61118;-87
2023/11/08 06:50:24;;;;;;;4.90;3.30;;;;;;;16.99;97.68;100579.60;106380;1257;74666;-87
2023/11/08 06:53:04;;;;;;;7.50;3.80;;;;;;;17.07;97.57;100578.46;106029;1260;67160;-87
2023/11/08 06:55:38;;;;;;;9.00;3.80;;;;;;;16.94;99.27;100572.85;106057;1256;72678;-85
2023/11/08 06:58:19;;;;;;;8.60;3.50;;;;;;;16.97;99.66;100573.39;106826;1260;62091;-85
2023/11/08 07:01:01;;;;;;;9.00;3.60;;;;;;;16.96;99.91;100575.79;106110;1257;61336;-85
2023/11/08 07:03:44;;;;;;;9.80;5.30;;;;;;;17.04;99.97;100588.52;106086;1259;73488;-85
2023/11/08 07:06:19;;;;;;;10.70;4.80;;;;;;;16.97;100.00;100582.55;106583;1254;69837;-88
2023/11/08 11:08:44;;;;;;;15.90;8.60;;;;;;;17.45;100.00;100054.89;106309;1257;75563;-81
2023/11/08 11:11:20;;;;;;;14.10;7.70;;;;;;;17.19;100.00;100053.77;105953;1258;70874;-81
2023/11/08 11:13:55;;;;;;;11.10;5.70;;;;;;;16.95;100.00;100044.17;106028;1257;75060;-81
2023/11/08 11:16:30;;;;;;;9.30;5.40;;;;;;;16.85;100.00;100030.58;105903;1262;62592;-81
2023/11/08 11:19:10;;;;;;;13.30;6.00;;;;;;;16.75;100.00;100023.17;106061;1254;61312;-81
2023/11/08 11:21:48;;;;;;;14.80;5.60;;;;;;;16.87;100.00;100019.55;106575;1260;76795;-81
2023/11/08 11:24:40;;;;;;;11.00;6.40;;;;;;;16.86;100.00;100003.92;106183;1260;69452;-81
2023/11/08 11:27:33;;;;;;;;;;;;;;;16.92;100.00;99996.13;106022;1258;74906;-81
2023/11/08 11:30:16;;;;;;;11.10;7.00;;;;;;;16.94;100.00;99983.92;106374;1261;61170;-81
2023/11/08 11:32:47;;;;;;;12.80;8.70;;;;;;;17.02;100.00;99965.31;106175;1259;61284;-81
2023/11/08 11:35:20;;;;;;;10.50;5.90;;;;;;;16.99;100.00;99958.00;106153;1254;75839;-81
2023/11/08 11:38:06;;;;;;;10.50;5.80;;;;;;;17.07;100.00;99970.69;106104;1254;69247;-82
2023/11/08 11:40:43;;;;;;;9.00;5.70;;;;;;;17.22;100.00;99977.98;106332;1257;73712;-81
2023/11/08 11:43:30;;;;;;;9.90;5.80;;;;;;;17.35;100.00;99977.75;106141;1254;61408;-82
2023/11/08 11:46:02;;;;;;;10.50;6.30;;;;;;;17.31;100.00;99971.70;106082;1254;61318;-81
2023/11/08 11:48:34;;;;;;;7.90;4.90;;;;;;;17.40;100.00;99969.25;105972;1254;75382;-81
2023/11/08 11:51:02;;;;;;;9.40;4.90;;;;;;;17.52;100.00;99961.36;106409;1254;70342;-80
2023/11/08 11:53:30;;;;;;;6.30;4.60;;;;;;;17.56;100.00;99951.98;105998;1257;73992;-81
2023/11/08 11:56:05;;;;;;;8.30;5.40;;;;;;;17.66;100.00;99939.27;106135;1259;62649;-81
2023/11/08 11:58:33;;;;;;;10.90;5.50;;;;;;;17.77;100.00;99929.44;106243;1260;61264;-81
2023/11/08 12:01:08;;;;;;;8.20;5.00;;;;;;;17.81;100.00;99929.02;106382;1254;75522;-80
2023/11/08 12:03:36;;;;;;;8.30;5.10;;;;;;;17.58;100.00;99923.51;106117;1259;71056;-82
2023/11/08 12:06:10;;;;;;;9.90;5.10;;;;;;;17.58;100.00;99926.47;106349;1254;74693;-81
2023/11/08 12:08:44;;;;;;;10.00;5.80;;;;;;;17.66;100.00;99920.34;106199;1254;62835;-81
2023/11/08 12:11:16;;;;;;;12.90;6.50;;;;;;;17.59;100.00;99917.81;106524;1254;62356;-81
2023/11/08 12:13:48;;;;;;;12.30;6.60;;;;;;;17.68;100.00;99910.86;106075;1254;76269;-81
2023/11/08 12:16:22;;;;;;;;;;;;;;;17.69;100.00;99903.21;106339;1254;70244;-81
2023/11/08 12:18:55;;;;;;;13.70;6.60;;;;;;;17.73;100.00;99907.70;106250;1254;73639;-81
2023/11/08 12:21:26;;;;;;;13.20;7.40;;;;;;;17.81;100.00;99906.15;106420;1260;61773;-80
2023/11/08 12:23:53;;;;;;;11.10;6.70;;;;;;;17.99;100.00;99900.75;106137;1257;62287;-80
2023/11/08 12:26:27;;;;;;;12.90;7.40;;;;;;;18.16;100.00;99893.27;106275;1255;77123;-80
2023/11/08 12:28:58;;;;;;;17.60;7.80;;;;;;;18.14;100.00;99892.58;106231;1254;70700;-80
2023/11/08 12:31:27;;;;;;;15.40;7.80;;;;;;;18.18;100.00;99897.70;106117;1257;73725;-81
2023/11/08 12:33:58;;;;;;;11.20;6.60;;;;;;;18.14;100.00;99905.52;106709;1254;64314;-81
2023/11/08 12:36:39;;;;;;;12.00;6.80;;;;;;;18.16;100.00;99916.44;106265;1254;62668;-81
2023/11/08 12:39:13;;;;;;;8.90;5.90;;;;;;;18.23;100.00;99915.73;106295;1254;74984;-81
2023/11/08 12:41:44;;;;;;;13.50;7.70;;;;;;;18.33;100.00;99912.39;106324;1260;70740;-81
2023/11/08 12:44:22;;;;;;;14.00;7.50;;;;;;;18.36;100.00;99900.66;106463;1254;74630;-80
2023/11/08 12:46:59;;;;;;;12.30;7.80;;;;;;;18.36;100.00;99894.82;106134;1257;61549;-79
2023/11/08 12:49:32;;;;;;;16.40;8.50;;;;;;;18.44;100.00;99883.91;106153;1254;61271;-81
2023/11/08 12:52:04;;;;;;;18.20;9.30;;;;;;;18.56;100.00;99883.02;106110;1260;75773;-82
2023/11/08 12:54:38;;;;;;;15.70;10.00;;;;;;;19.03;100.00;99878.73;106641;1254;69601;-81
2023/11/08 12:57:25;;;;;;;17.80;9.40;;;;;;;19.17;100.00;99873.27;106622;1254;73659;-82
2023/11/08 12:59:54;;;;;;;16.00;9.60;;;;;;;19.33;100.00;99888.80;106259;1254;63206;-81
2023/11/08 13:02:22;;;;;;;15.20;8.50;;;;;;;19.42;100.00;99888.46;106007;1256;62276;-82
2023/11/08 13:05:00;;;;;;;13.90;8.00;;;;;;;19.44;100.00;99880.27;106180;1260;75781;-82
2023/11/08 13:08:00;;;;;;;15.30;8.70;;;;;;;19.56;100.00;99872.34;106322;1254;71294;-81
2023/11/08 13:10:30;;;;;;;13.80;8.90;;;;;;;19.63;100.00;99872.66;106202;1254;73018;-82
2023/11/08 13:12:58;;;;;;;13.70;8.00;;;;;;;19.67;100.00;99870.66;106073;1260;63737;-82
2023/11/08 13:15:28;;;;;;;12.50;7.50;;;;;;;19.69;100.00;99874.70;106054;1254;62025;-82
2023/11/08 13:18:03;;;;;;;12.90;6.80;;;;;;;19.70;100.00;99877.78;106348;1254;75542;-79
2023/11/08 13:20:33;;;;;;;11.40;7.80;;;;;;;19.60;100.00;99880.59;106089;1256;70662;-81
2023/11/08 13:23:07;;;;;;;13.50;7.30;;;;;;;19.69;100.00;99879.98;105953;1257;73527;-81
2023/11/08 13:26:01;;;;;;;12.50;7.50;;;;;;;19.66;100.00;99887.91;106000;1257;61424;-81
2023/11/08 13:28:29;;;;;;;15.00;8.00;;;;;;;19.41;100.00;99895.26;106338;1257;62066;-80
2023/11/08 13:30:57;;;;;;;11.90;7.40;;;;;;;19.46;100.00;99891.52;105942;1260;76989;-80
2023/11/08 13:33:31;;;;;;;17.10;8.20;;;;;;;19.51;100.00;99877.34;105959;1255;70907;-81
2023/11/08 13:36:07;;;;;;;13.80;7.90;;;;;;;19.44;100.00;99868.05;105938;1257;75241;-82
2023/11/08 13:38:36;;;;;;;11.70;6.60;;;;;;;19.50;100.00;99866.77;105876;1259;62494;-79
2023/11/08 13:41:08;;;;;;;12.50;7.60;;;;;;;19.60;100.00;99881.46;106141;1257;61209;-82
2023/11/08 13:43:36;;;;;;;13.40;6.90;;;;;;;19.60;100.00;99879.73;106071;1255;75439;-79
2023/11/08 13:46:10;;;;;;;17.20;7.20;;;;;;;19.61;100.00;99884.64;106064;1257;70694;-81
2023/11/08 13:48:38;;;;;;;14.60;8.10;;;;;;;19.68;100.00;99885.05;106125;1256;74932;-81
2023/11/08 13:51:07;;;;;;;15.40;7.70;;;;;;;19.67;100.00;99887.45;106751;1255;62437;-82
2023/11/08 13:53:39;;;;;;;21.80;9.80;;;;;;;19.59;100.00;99882.48;106046;1254;62359;-81
2023/11/08 13:56:13;;;;;;;;;;;;;;;19.59;100.00;99891.80;105928;1256;76079;-81
2023/11/08 13:58:41;;;;;;;12.20;6.60;;;;;;;19.62;100.00;99887.30;106054;1257;70520;-81
2023/11/08 14:01:15;;;;;;;14.80;8.80;;;;;;;19.62;100.00;99893.48;106233;1257;75109;-80
2023/11/08 14:03:51;;;;;;;13.30;8.00;;;;;;;19.74;100.00;99902.30;106160;1260;61185;-81
2023/11/08 14:06:28;;;;;;;17.20;10.30;;;;;;;19.75;100.00;99900.27;106028;1260;62356;-82
2023/11/08 14:09:04;;;;;;;15.50;8.90;;;;;;;19.72;100.00;99899.48;106044;1260;74342;-81
2023/11/08 14:12:27;;;;;;;16.90;8.90;;;;;;;19.70;100.00;99900.67;106155;1255;69997;-82
2023/11/08 14:15:11;;;;;;;15.40;8.40;;;;;;;19.66;100.00;99891.64;105846;1257;74867;-82
2023/11/08 14:17:46;;;;;;;15.40;9.10;;;;;;;19.72;100.00;99888.48;106119;1255;61530;-82
2023/11/08 14:20:19;;;;;;;15.30;9.60;;;;;;;19.76;100.00;99881.28;106003;1260;62278;-82
2023/11/08 14:22:53;;;;;;;16.50;10.10;;;;;;;19.79;100.00;99881.14;106064;1260;75901;-82
2023/11/08 14:25:21;;;;;;;15.70;9.40;;;;;;;19.65;100.00;99880.33;106724;1254;69873;-82
2023/11/08 14:28:00;;;;;;;14.90;8.30;;;;;;;19.39;100.00;99869.09;105977;1258;75007;-82
2023/11/08 14:30:28;;;;;;;17.10;8.70;;;;;;;19.40;100.00;99869.33;106001;1256;61621;-82
2023/11/08 14:33:02;;;;;;;14.20;10.10;;;;;;;19.29;100.00;99866.68;106309;1254;61420;-83
2023/11/08 14:35:36;;;;;;;16.10;9.10;;;;;;;19.40;100.00;99866.25;106389;1255;75198;-81
2023/11/08 14:38:10;;;;;;;15.40;10.10;;;;;;;19.32;100.00;99868.34;106183;1254;69626;-83
2023/11/08 14:40:40;;;;;;;15.40;9.30;;;;;;;19.29;100.00;99874.83;105927;1254;74244;-82
2023/11/08 14:43:15;;;;;;;15.50;9.00;;;;;;;19.19;100.00;99882.75;106212;1258;61367;-82
2023/11/08 14:45:47;;;;;;;16.40;8.90;;;;;;;19.18;100.00;99883.38;106354;1261;61264;-82
2023/11/08 14:48:28;;;;;;;16.20;8.70;;;;;;;19.39;100.00;99879.61;106063;1256;75808;-81
2023/11/08 14:50:56;;;;;;;17.20;8.90;;;;;;;19.44;100.00;99886.41;106075;1254;70086;-82
2023/11/08 14:53:30;;;;;;;14.70;9.10;;;;;;;19.28;100.00;99893.79;106091;1260;73744;-81
2023/11/08 14:56:03;;;;;;;13.70;8.30;;;;;;;19.11;100.00;99906.04;106122;1258;61334;-80
2023/11/08 14:58:38;;;;;;;13.50;8.50;;;;;;;18.93;100.00;99900.91;105981;1261;61184;-82
2023/11/08 15:01:11;;;;;;;17.50;8.50;;;;;;;18.94;100.00;99892.70;105964;1256;75008;-82
2023/11/08 15:03:52;;;;;;;14.60;8.80;;;;;;;19.00;100.00;99887.90;106157;1254;69851;-82
2023/11/08 15:06:20;;;;;;;14.40;8.80;;;;;;;19.02;100.00;99873.78;106585;1255;76528;-81
2023/11/08 15:09:04;;;;;;;16.50;7.90;;;;;;;19.04;100.00;99863.73;106170;1254;64068;-81
2023/11/08 15:12:04;;;;;;;20.30;11.00;;;;;;;19.01;100.00;99879.71;105977;1256;62527;-81
2023/11/08 15:14:44;;;;;;;13.50;8.20;;;;;;;18.98;100.00;99887.29;105876;1257;77031;-82
2023/11/08 15:17:25;;;;;;;10.50;6.10;;;;;;;19.00;100.00;99888.44;106464;1259;69603;-82
2023/11/08 15:20:06;;;;;;;10.50;5.60;;;;;;;19.07;100.00;99894.42;106154;1257;75022;-81
2023/11/08 15:22:49;;;;;;;8.20;4.80;;;;;;;19.03;100.00;99891.48;106090;1260;62783;-81
2023/11/08 15:25:29;;;;;;;9.10;5.50;;;;;;;18.92;100.00;99887.02;106308;1256;61317;-82
2023/11/08 15:28:11;;;;;;;6.80;4.30;;;;;;;18.82;100.00;99888.53;106181;1255;75541;-82
2023/11/08 15:30:51;;;;;;;6.00;3.90;;;;;;;18.65;100.00;99889.02;106334;1254;71337;-82
2023/11/08 15:33:31;;;;;;;4.20;2.80;;;;;;;18.47;100.00;99886.63;106085;1259;75325;-82
2023/11/08 15:36:12;;;;;;;5.30;3.40;;;;;;;18.43;100.00;99887.91;106156;1255;63615;-83
2023/11/08 15:38:53;;;;;;;3.90;2.40;;;;;;;18.55;100.00;99895.56;106398;1253;62000;-83
2023/11/08 15:41:33;;;;;;;3.30;2.60;;;;;;;18.66;100.00;99902.55;106463;1254;76308;-83
2023/11/08 15:44:13;;;;;;;3.40;2.70;;;;;;;18.47;100.00;99901.95;106108;1254;70674;-82
2023/11/08 15:46:54;;;;;;;5.50;2.80;;;;;;;18.41;100.00;99898.69;106105;1260;74437;-81
2023/11/08 15:49:34;;;;;;;3.50;2.80;;;;;;;18.35;100.00;99902.84;106433;1254;62299;-81
2023/11/08 15:52:15;;;;;;;3.20;2.90;;;;;;;18.82;100.00;99894.95;106068;1256;61444;-81
2023/11/08 15:54:55;;;;;;;3.40;2.80;;;;;;;19.17;100.00;99896.07;106041;1254;76771;-82
2023/11/08 15:57:35;;;;;;;6.30;3.80;;;;;;;19.19;100.00;99895.65;106100;1254;70825;-82
2023/11/08 16:00:16;;;;;;;4.40;2.90;;;;;;;19.18;100.00;99893.79;106078;1260;73584;-82
2023/11/08 16:02:56;;;;;;;3.90;3.00;;;;;;;19.06;100.00;99898.89;106039;1256;64252;-82